Time;durP1;ratioP1;P1;durP2;ratioP2;P2;SDS_P1;SDS_P2;PMS_P1;PMS_P2;Temp;Humidity;BMP_temperature;BMP_pressure;BME280_temperature;BME280_humidity;BME280_pressure;Samples;Min_cycle;Max_cycle;Signal;HPM_P1;HPM_P2
2022/09/25 00:01:50;;;;;;;;;;;;;;;6.47;100.00;97890.50;5008722;28;19929;-46
2022/09/25 00:04:19;;;;;;;;;;;;;;;6.53;100.00;97892.78;5007971;28;19930;-46
2022/09/25 00:06:47;;;;;;;;;;;;;;;6.47;100.00;97888.69;5007827;28;20902;-47
2022/09/25 00:09:18;;;;;;;;;;;;;;;6.49;100.00;97893.84;5008029;28;19925;-47
2022/09/25 00:11:46;;;;;;;;;;;;;;;6.45;100.00;97892.31;5006395;28;20643;-47
2022/09/25 00:14:13;;;;;;;;;;;;;;;6.41;100.00;97888.16;5008151;28;20118;-45
2022/09/25 00:16:40;;;;;;;;;;;;;;;6.38;100.00;97883.09;5008276;28;19926;-46
2022/09/25 00:22:03;;;;;;;;;;;;;;;6.23;100.00;97886.47;4990837;28;19988;-48
2022/09/25 00:24:30;;;;;;;;;;;;;;;6.17;100.00;97877.16;5008520;28;19932;-46
2022/09/25 00:26:58;;;;;;;;;;;;;;;6.12;100.00;97887.00;5006105;28;19933;-46
2022/09/25 00:29:26;;;;;;;;;;;;;;;6.25;100.00;97874.19;5007947;28;20436;-47
2022/09/25 00:31:54;;;;;;;;;;;;;;;6.31;100.00;97877.34;4998648;28;19932;-46
2022/09/25 00:34:22;;;;;;;;;;;;;;;6.26;100.00;97881.09;5000330;28;19925;-47
2022/09/25 00:36:49;;;;;;;;;;;;;;;6.18;100.00;97876.22;5008557;28;19933;-45
2022/09/25 00:39:18;;;;;;;;;;;;;;;6.14;100.00;97874.69;5008177;28;19930;-47
2022/09/25 00:41:45;;;;;;;;;;;;;;;6.24;100.00;97869.84;5006209;28;19936;-48
2022/09/25 00:44:30;;;;;;;;;;;;;;;6.28;100.00;97879.28;5005535;28;19925;-45
2022/09/25 00:46:58;;;;;;;;;;;;;;;6.20;100.00;97884.84;5007962;28;19952;-47
2022/09/25 00:49:26;;;;;;;;;;;;;;;6.04;100.00;97872.63;5005300;28;19937;-48
2022/09/25 00:51:56;;;;;;;;;;;;;;;6.17;100.00;97869.31;4990783;28;19926;-48
2022/09/25 00:54:27;;;;;;;;;;;;;;;6.22;100.00;97875.19;5007667;28;19925;-47
2022/09/25 00:56:55;;;;;;;;;;;;;;;6.26;100.00;97871.50;5005828;28;20034;-46
2022/09/25 00:59:24;;;;;;;;;;;;;;;6.35;100.00;97867.56;5006127;28;19937;-45
2022/09/25 01:01:51;;;;;;;;;;;;;;;6.15;100.00;97867.72;5007835;28;19925;-45
2022/09/25 01:04:19;;;;;;;;;;;;;;;6.03;100.00;97866.53;5002788;28;19929;-46
2022/09/25 01:06:48;;;;;;;;;;;;;;;5.95;100.00;97866.06;5007821;28;19929;-45
2022/09/25 01:09:16;;;;;;;;;;;;;;;6.04;100.00;97857.81;5007729;28;19981;-46
2022/09/25 01:11:45;;;;;;;;;;;;;;;5.98;100.00;97858.09;5003408;28;19925;-47
2022/09/25 01:14:15;;;;;;;;;;;;;;;6.04;100.00;97862.16;5007945;28;20288;-45
2022/09/25 01:16:44;;;;;;;;;;;;;;;5.98;100.00;97862.47;5005874;28;20335;-46
2022/09/25 01:19:15;;;;;;;;;;;;;;;6.11;100.00;97863.56;4995165;28;19933;-51
2022/09/25 01:21:44;;;;;;;;;;;;;;;5.99;100.00;97859.78;5006724;28;20135;-45
2022/09/25 01:24:32;;;;;;;;;;;;;;;5.92;100.00;97850.53;5007772;28;19930;-46
2022/09/25 01:27:12;;;;;;;;;;;;;;;5.95;100.00;97847.78;5005186;28;20336;-45
2022/09/25 01:29:45;;;;;;;;;;;;;;;6.01;100.00;97850.13;5003115;28;20301;-46
2022/09/25 01:32:17;;;;;;;;;;;;;;;6.00;100.00;97851.03;5005086;28;19933;-47
2022/09/25 01:34:48;;;;;;;;;;;;;;;6.00;100.00;97851.03;5007833;28;19932;-46
2022/09/25 01:37:21;;;;;;;;;;;;;;;6.07;100.00;97848.97;4989736;28;20296;-47
2022/09/25 01:39:55;;;;;;;;;;;;;;;6.22;100.00;97851.69;5006112;28;20011;-46
2022/09/25 01:42:26;;;;;;;;;;;;;;;6.19;100.00;97850.97;5007685;28;19929;-46
2022/09/25 01:44:59;;;;;;;;;;;;;;;5.99;100.00;97853.72;5004941;28;19925;-46
2022/09/25 01:47:28;;;;;;;;;;;;;;;6.05;100.00;97856.88;5005549;28;19988;-46
2022/09/25 01:49:58;;;;;;;;;;;;;;;6.05;100.00;97851.66;5007371;28;19929;-46
2022/09/25 01:52:28;;;;;;;;;;;;;;;6.03;100.00;97856.09;5004741;28;19926;-46
2022/09/25 01:54:59;;;;;;;;;;;;;;;5.93;100.00;97864.47;4987826;28;20281;-46
2022/09/25 01:57:30;;;;;;;;;;;;;;;6.00;100.00;97858.03;5007445;28;19929;-47
2022/09/25 02:00:01;;;;;;;;;;;;;;;6.02;100.00;97859.63;5003284;28;20359;-46
2022/09/25 02:02:41;;;;;;;;;;;;;;;6.02;100.00;97854.41;5005594;28;19930;-47
2022/09/25 02:05:12;;;;;;;;;;;;;;;6.05;100.00;97848.19;5009000;28;19930;-48
2022/09/25 02:07:42;;;;;;;;;;;;;;;6.09;100.00;97837.53;5010806;28;20056;-47
2022/09/25 02:10:12;;;;;;;;;;;;;;;6.06;100.00;97842.88;5008871;28;19925;-48
2022/09/25 02:12:42;;;;;;;;;;;;;;;6.07;100.00;97846.34;5008980;28;19949;-46
2022/09/25 02:15:13;;;;;;;;;;;;;;;6.05;100.00;97843.81;5010042;28;19997;-45
2022/09/25 02:20:32;;;;;;;;;;;;;;;6.09;100.00;97837.53;5010739;28;20018;-47
2022/09/25 02:23:04;;;;;;;;;;;;;;;6.12;100.00;97845.22;5010884;28;19926;-45
2022/09/25 02:25:35;;;;;;;;;;;;;;;6.28;100.00;97843.50;4989612;28;20480;-46
2022/09/25 02:28:04;;;;;;;;;;;;;;;6.21;100.00;97839.50;5004216;28;20024;-46
2022/09/25 02:30:33;;;;;;;;;;;;;;;6.30;100.00;97848.66;5010301;28;19933;-46
2022/09/25 02:33:00;;;;;;;;;;;;;;;6.22;100.00;97843.00;5009368;28;19961;-46
2022/09/25 02:35:27;;;;;;;;;;;;;;;6.25;100.00;97842.84;5010170;28;19934;-47
2022/09/25 02:37:56;;;;;;;;;;;;;;;6.40;100.00;97836.84;5005815;28;20369;-46
2022/09/25 02:40:27;;;;;;;;;;;;;;;6.38;100.00;97842.13;5009715;28;20559;-47
2022/09/25 02:42:59;;;;;;;;;;;;;;;6.38;100.00;97842.13;5008385;28;19929;-45
2022/09/25 02:45:31;;;;;;;;;;;;;;;6.38;100.00;97834.31;5004602;28;19926;-47
2022/09/25 02:48:06;;;;;;;;;;;;;;;6.52;100.00;97837.06;4998769;28;20281;-46
2022/09/25 02:50:36;;;;;;;;;;;;;;;6.52;100.00;97838.81;4992861;28;19926;-48
2022/09/25 02:53:08;;;;;;;;;;;;;;;6.55;100.00;97839.50;4993088;28;19931;-47
2022/09/25 02:55:37;;;;;;;;;;;;;;;6.39;100.00;97825.53;4999171;28;20023;-46
2022/09/25 02:58:07;;;;;;;;;;;;;;;6.24;100.00;97826.31;5010558;28;20123;-47
2022/09/25 03:00:35;;;;;;;;;;;;;;;6.26;100.00;97834.94;5010019;28;19936;-48
2022/09/25 03:03:06;;;;;;;;;;;;;;;6.35;100.00;97831.84;4998519;28;19932;-45
2022/09/25 03:05:34;;;;;;;;;;;;;;;6.28;100.00;97840.91;5010346;28;19933;-46
2022/09/25 03:10:46;;;;;;;;;;;;;;;6.37;100.00;97840.47;5009432;28;19936;-45
2022/09/25 03:13:14;;;;;;;;;;;;;;;6.43;100.00;97844.53;5009947;28;19926;-46
2022/09/25 03:15:44;;;;;;;;;;;;;;;6.30;100.00;97838.22;5000549;28;19948;-50
2022/09/25 03:18:13;;;;;;;;;;;;;;;6.33;100.00;97838.94;5010254;28;19933;-48
2022/09/25 03:20:40;;;;;;;;;;;;;;;6.27;100.00;97827.91;5005540;28;19930;-45
2022/09/25 03:23:07;;;;;;;;;;;;;;;6.28;100.00;97832.25;5010006;28;19936;-48
2022/09/25 03:25:35;;;;;;;;;;;;;;;6.40;100.00;97831.63;4990021;28;20055;-49
2022/09/25 03:28:02;;;;;;;;;;;;;;;6.20;100.00;97830.00;5008133;28;19933;-46
2022/09/25 03:30:29;;;;;;;;;;;;;;;6.23;100.00;97837.69;5009479;28;19941;-45
2022/09/25 03:32:56;;;;;;;;;;;;;;;6.32;100.00;97836.38;5007302;28;19932;-47
2022/09/25 03:35:25;;;;;;;;;;;;;;;6.24;100.00;97828.91;4992636;28;19926;-47
2022/09/25 03:37:52;;;;;;;;;;;;;;;6.27;100.00;97828.78;5008641;28;19930;-47
2022/09/25 03:40:20;;;;;;;;;;;;;;;6.34;100.00;97831.91;5007532;28;19935;-47
2022/09/25 03:42:47;;;;;;;;;;;;;;;6.38;100.00;97818.63;5009297;28;19929;-46
2022/09/25 03:45:14;;;;;;;;;;;;;;;6.42;100.00;97812.31;5006675;28;19929;-47
2022/09/25 03:47:41;;;;;;;;;;;;;;;6.28;100.00;97822.63;5004657;28;19926;-46
2022/09/25 03:50:08;;;;;;;;;;;;;;;6.31;100.00;97812.03;5008206;28;19926;-47
2022/09/25 03:52:37;;;;;;;;;;;;;;;6.36;100.00;97812.63;5008801;28;19932;-47
2022/09/25 03:55:05;;;;;;;;;;;;;;;6.26;100.00;97819.25;5009062;28;19930;-47
2022/09/25 03:57:32;;;;;;;;;;;;;;;6.14;100.00;97814.63;5007423;28;19932;-47
2022/09/25 04:00:01;;;;;;;;;;;;;;;6.10;100.00;97813.09;5009672;28;20447;-46
2022/09/25 04:02:39;;;;;;;;;;;;;;;6.28;100.00;97808.72;5009715;28;19929;-46
2022/09/25 04:05:06;;;;;;;;;;;;;;;6.27;100.00;97810.47;5007660;28;19980;-46
2022/09/25 04:07:34;;;;;;;;;;;;;;;6.47;100.00;97805.06;5009763;28;19925;-47
2022/09/25 04:10:03;;;;;;;;;;;;;;;6.28;100.00;97803.50;5009391;28;19925;-46
2022/09/25 04:12:30;;;;;;;;;;;;;;;6.43;100.00;97803.53;5007569;28;19964;-47
2022/09/25 04:14:57;;;;;;;;;;;;;;;6.47;100.00;97815.53;5009311;28;19932;-45
2022/09/25 04:17:24;;;;;;;;;;;;;;;6.49;100.00;97818.91;5009772;28;20446;-47
2022/09/25 04:19:51;;;;;;;;;;;;;;;6.81;100.00;97802.41;5008079;28;20400;-48
2022/09/25 04:22:19;;;;;;;;;;;;;;;7.00;100.00;97804.88;5004696;28;19977;-48
2022/09/25 04:24:49;;;;;;;;;;;;;;;6.85;100.00;97800.47;5001832;28;19925;-46
2022/09/25 04:27:19;;;;;;;;;;;;;;;7.03;100.00;97805.59;5004655;28;19944;-49
2022/09/25 04:29:46;;;;;;;;;;;;;;;6.89;100.00;97800.25;5006015;28;20016;-46
2022/09/25 04:34:59;;;;;;;;;;;;;;;6.97;100.00;97805.91;5000387;28;19930;-45
2022/09/25 04:37:26;;;;;;;;;;;;;;;7.04;100.00;97796.81;5005848;28;20012;-47
2022/09/25 04:39:53;;;;;;;;;;;;;;;7.03;100.00;97795.13;5008014;28;19926;-46
2022/09/25 04:42:23;;;;;;;;;;;;;;;7.08;100.00;97795.72;5005227;28;19967;-48
2022/09/25 04:44:51;;;;;;;;;;;;;;;6.90;100.00;97795.84;5007460;28;20322;-46
2022/09/25 04:47:18;;;;;;;;;;;;;;;6.82;100.00;97792.78;5000988;28;19953;-48
2022/09/25 04:49:45;;;;;;;;;;;;;;;6.79;100.00;97800.78;4998473;28;20392;-47
2022/09/25 04:52:14;;;;;;;;;;;;;;;6.79;100.00;97804.25;5001366;28;20138;-47
2022/09/25 04:54:41;;;;;;;;;;;;;;;6.91;100.00;97802.78;5002800;28;20335;-47
2022/09/25 04:57:08;;;;;;;;;;;;;;;6.98;100.00;97801.53;4995092;28;20388;-45
2022/09/25 04:59:37;;;;;;;;;;;;;;;7.08;100.00;97813.16;4994470;28;20269;-46
2022/09/25 05:02:04;;;;;;;;;;;;;;;7.24;100.00;97816.66;5007974;28;19925;-45
2022/09/25 05:04:31;;;;;;;;;;;;;;;7.30;100.00;97811.94;5006113;28;19925;-47
2022/09/25 05:06:58;;;;;;;;;;;;;;;7.40;100.00;97810.50;5005636;28;19926;-47
2022/09/25 05:09:25;;;;;;;;;;;;;;;7.52;100.00;97814.19;5006735;28;19932;-46
2022/09/25 05:11:55;;;;;;;;;;;;;;;7.59;100.00;97819.03;5006957;28;20229;-45
2022/09/25 05:14:23;;;;;;;;;;;;;;;7.66;100.00;97816.91;5005935;28;20291;-48
2022/09/25 05:16:52;;;;;;;;;;;;;;;7.69;100.00;97825.41;4985329;28;19922;-44
2022/09/25 05:19:19;;;;;;;;;;;;;;;7.83;100.00;97822.09;5008411;28;19953;-45
2022/09/25 05:21:46;;;;;;;;;;;;;;;7.90;100.00;97826.88;5005981;28;19925;-45
2022/09/25 05:24:14;;;;;;;;;;;;;;;7.83;100.00;97829.94;4998872;28;19932;-45
2022/09/25 05:26:41;;;;;;;;;;;;;;;7.83;100.00;97833.38;5007945;28;19925;-45
2022/09/25 05:29:08;;;;;;;;;;;;;;;7.73;100.00;97820.88;5008006;28;19979;-47
2022/09/25 05:31:35;;;;;;;;;;;;;;;7.66;100.00;97828.22;5000455;28;20454;-45
2022/09/25 05:34:04;;;;;;;;;;;;;;;7.75;100.00;97827.72;5004772;28;19925;-44
2022/09/25 05:36:33;;;;;;;;;;;;;;;7.74;100.00;97828.63;5007652;28;19932;-43
2022/09/25 05:39:00;;;;;;;;;;;;;;;7.78;100.00;97832.81;5006323;28;19984;-50
2022/09/25 05:41:28;;;;;;;;;;;;;;;7.98;100.00;97826.44;4997737;28;19926;-44
2022/09/25 05:43:55;;;;;;;;;;;;;;;7.96;100.00;97818.66;4997951;28;19940;-44
2022/09/25 05:46:22;;;;;;;;;;;;;;;7.94;100.00;97824.94;4998912;28;19929;-44
2022/09/25 05:48:50;;;;;;;;;;;;;;;7.89;100.00;97824.34;5004990;28;19935;-43
2022/09/25 05:51:18;;;;;;;;;;;;;;;7.89;100.00;97817.34;5005555;28;19945;-44
2022/09/25 05:53:46;;;;;;;;;;;;;;;7.89;100.00;97819.94;5006880;28;19925;-42
2022/09/25 05:56:15;;;;;;;;;;;;;;;7.94;100.00;97823.13;5006550;28;19933;-42
2022/09/25 05:58:42;;;;;;;;;;;;;;;8.02;100.00;97818.31;5007413;28;19926;-43
2022/09/25 06:01:09;;;;;;;;;;;;;;;8.07;100.00;97823.28;5008969;28;20020;-43
2022/09/25 06:03:36;;;;;;;;;;;;;;;8.11;100.00;97821.34;5007094;28;19932;-43
2022/09/25 06:06:04;;;;;;;;;;;;;;;8.13;100.00;97826.38;5007984;28;19930;-43
2022/09/25 06:08:34;;;;;;;;;;;;;;;8.20;100.00;97823.44;5005975;28;20408;-41
2022/09/25 06:11:01;;;;;;;;;;;;;;;8.32;100.00;97827.94;5005755;28;19953;-43
2022/09/25 06:13:30;;;;;;;;;;;;;;;8.32;100.00;97823.56;5007911;28;19934;-42
2022/09/25 06:15:58;;;;;;;;;;;;;;;8.38;100.00;97828.47;4990342;28;20512;-44
2022/09/25 06:18:25;;;;;;;;;;;;;;;8.41;100.00;97820.38;5003910;28;19926;-43
2022/09/25 06:20:59;;;;;;;;;;;;;;;8.44;100.00;97822.00;4988213;28;20459;-43
2022/09/25 06:23:26;;;;;;;;;;;;;;;8.54;100.00;97825.75;5003069;28;20385;-44
2022/09/25 06:25:55;;;;;;;;;;;;;;;8.46;100.00;97814.88;5002224;28;19929;-44
2022/09/25 06:28:22;;;;;;;;;;;;;;;8.52;100.00;97822.41;4998687;28;20373;-42
2022/09/25 06:30:50;;;;;;;;;;;;;;;8.58;100.00;97822.88;5000893;28;20016;-43
2022/09/25 06:33:17;;;;;;;;;;;;;;;8.65;100.00;97820.72;5001792;28;19940;-43
2022/09/25 06:35:45;;;;;;;;;;;;;;;8.69;100.00;97819.59;4998617;28;19930;-42
2022/09/25 06:38:13;;;;;;;;;;;;;;;8.72;100.00;97815.03;5002514;28;20020;-44
2022/09/25 06:40:41;;;;;;;;;;;;;;;8.85;100.00;97812.50;5001432;28;19929;-44
2022/09/25 06:43:12;;;;;;;;;;;;;;;8.74;100.00;97807.88;4997394;28;20372;-44
2022/09/25 06:45:40;;;;;;;;;;;;;;;8.75;100.00;97811.38;5002505;28;19930;-44
2022/09/25 06:48:09;;;;;;;;;;;;;;;8.72;100.00;97808.94;5000763;28;20402;-45
2022/09/25 06:50:38;;;;;;;;;;;;;;;8.74;100.00;97802.66;4997654;28;20349;-43
2022/09/25 06:53:05;;;;;;;;;;;;;;;8.91;100.00;97812.13;4989071;28;20740;-44
2022/09/25 06:55:33;;;;;;;;;;;;;;;8.83;100.00;97801.25;5007307;28;20016;-43
2022/09/25 06:58:01;;;;;;;;;;;;;;;8.66;100.00;97804.06;5002494;28;20595;-46
2022/09/25 07:00:30;;;;;;;;;;;;;;;8.70;100.00;97803.78;4983950;28;19961;-44
2022/09/25 07:05:43;;;;;;;;;;;;;;;8.68;100.00;97802.19;4999512;28;20398;-43
2022/09/25 07:08:11;;;;;;;;;;;;;;;8.93;100.00;97807.63;4999287;28;19969;-43
2022/09/25 07:10:39;;;;;;;;;;;;;;;9.08;100.00;97809.31;4998480;28;19926;-43
2022/09/25 07:13:07;;;;;;;;;;;;;;;8.94;100.00;97811.94;4998282;28;19926;-44
2022/09/25 07:15:35;;;;;;;;;;;;;;;9.12;100.00;97811.66;4980782;28;19929;-43
2022/09/25 07:18:03;;;;;;;;;;;;;;;9.09;100.00;97811.00;4985472;28;19957;-42
2022/09/25 07:20:31;;;;;;;;;;;;;;;9.21;100.00;97807.59;4999429;28;19938;-46
2022/09/25 07:22:59;;;;;;;;;;;;;;;9.29;100.00;97800.94;5001057;28;19932;-43
2022/09/25 07:25:26;;;;;;;;;;;;;;;9.50;100.00;97802.25;4999226;28;19933;-43
2022/09/25 07:27:53;;;;;;;;;;;;;;;9.60;100.00;97806.00;4999943;28;19925;-44
2022/09/25 07:30:21;;;;;;;;;;;;;;;9.79;100.00;97808.25;4998749;28;19929;-44
2022/09/25 07:32:49;;;;;;;;;;;;;;;9.98;100.00;97803.50;4998800;28;19930;-44
2022/09/25 07:35:17;;;;;;;;;;;;;;;10.08;100.00;97801.97;4997546;28;19936;-43
2022/09/25 07:37:44;;;;;;;;;;;;;;;10.42;100.00;97809.28;4996819;28;19933;-43
2022/09/25 07:40:12;;;;;;;;;;;;;;;10.38;100.00;97802.53;4999831;28;19987;-44
2022/09/25 07:42:39;;;;;;;;;;;;;;;10.49;100.00;97800.03;4998835;28;19932;-43
2022/09/25 07:45:07;;;;;;;;;;;;;;;10.66;100.00;97812.91;4997240;28;20456;-51
2022/09/25 07:47:34;;;;;;;;;;;;;;;10.75;100.00;97807.03;5006190;28;19932;-44
2022/09/25 07:50:03;;;;;;;;;;;;;;;10.85;100.00;97808.09;4987043;28;20409;-43
2022/09/25 07:52:30;;;;;;;;;;;;;;;11.00;100.00;97802.63;5008847;28;19926;-43
2022/09/25 07:54:58;;;;;;;;;;;;;;;11.28;100.00;97802.34;4985925;28;19934;-43
2022/09/25 07:57:26;;;;;;;;;;;;;;;11.16;100.00;97797.97;5006873;28;19957;-44
2022/09/25 07:59:53;;;;;;;;;;;;;;;11.58;100.00;97799.34;5004306;28;19933;-43
2022/09/25 08:02:21;;;;;;;;;;;;;;;11.80;100.00;97796.00;4987263;28;20438;-44
2022/09/25 08:04:48;;;;;;;;;;;;;;;11.39;100.00;97801.63;5007318;28;19929;-45
2022/09/25 08:07:16;;;;;;;;;;;;;;;11.32;100.00;97806.47;5006992;28;20384;-44
2022/09/25 08:09:43;;;;;;;;;;;;;;;11.41;100.00;97806.78;5000913;28;19925;-47
2022/09/25 08:12:12;;;;;;;;;;;;;;;11.66;100.00;97802.28;5005158;28;20068;-44
2022/09/25 08:14:40;;;;;;;;;;;;;;;11.47;100.00;97806.31;5006477;28;20284;-45
2022/09/25 08:17:07;;;;;;;;;;;;;;;11.38;100.00;97799.09;4999385;28;19933;-43
2022/09/25 08:19:36;;;;;;;;;;;;;;;11.24;100.00;97797.44;4985171;28;19925;-44
2022/09/25 08:22:05;;;;;;;;;;;;;;;11.06;100.00;97796.09;5002989;28;19925;-43
2022/09/25 08:24:39;;;;;;;;;;;;;;;10.77;100.00;97794.63;5002514;28;19930;-43
2022/09/25 08:27:12;;;;;;;;;;;;;;;10.75;100.00;97796.50;5006521;28;19936;-43
2022/09/25 08:29:43;;;;;;;;;;;;;;;10.77;100.00;97794.63;4984846;28;19925;-43
2022/09/25 08:32:13;;;;;;;;;;;;;;;10.81;100.00;97799.59;5007951;28;19936;-42
2022/09/25 08:34:44;;;;;;;;;;;;;;;10.81;100.00;97790.84;5003364;28;20323;-43
2022/09/25 08:37:15;;;;;;;;;;;;;;;10.78;100.00;97791.03;5000096;28;19957;-45
2022/09/25 08:39:48;;;;;;;;;;;;;;;10.88;100.00;97790.28;4985834;28;20284;-43
2022/09/25 08:42:19;;;;;;;;;;;;;;;10.93;100.00;97795.25;5003520;28;19926;-43
2022/09/25 08:49:00;;;;;;;;;;;;;;;11.00;100.00;97791.25;5002043;28;19980;-42
2022/09/25 08:50:25;;;;;;;;;;;;;;;11.12;100.00;97791.22;4997375;28;19933;-43
2022/09/25 08:53:02;;;;;;;;;;;;;;;11.08;100.00;97781.88;4997560;28;19933;-43
2022/09/25 08:58:22;;;;;;;;;;;;;;;11.52;100.00;97773.44;4980903;28;19979;-43
2022/09/25 09:00:54;;;;;;;;;;;;;;;11.71;100.00;97771.16;4982930;28;19932;-43
2022/09/25 09:03:24;;;;;;;;;;;;;;;12.09;100.00;97771.84;4999335;28;19926;-44
2022/09/25 09:05:56;;;;;;;;;;;;;;;11.82;100.00;97770.38;5002530;28;20024;-44
2022/09/25 09:08:24;;;;;;;;;;;;;;;11.69;100.00;97775.69;4998686;28;19929;-43
2022/09/25 09:10:55;;;;;;;;;;;;;;;12.35;100.00;97772.53;4998528;28;20033;-44
2022/09/25 09:13:25;;;;;;;;;;;;;;;12.60;100.00;97770.53;4996887;28;19930;-44
2022/09/25 09:15:54;;;;;;;;;;;;;;;12.46;100.00;97775.22;5004609;28;19965;-44
2022/09/25 09:18:23;;;;;;;;;;;;;;;12.38;100.00;97770.50;5004320;28;19933;-44
2022/09/25 09:20:51;;;;;;;;;;;;;;;12.54;100.00;97767.53;5001057;28;20448;-44
2022/09/25 09:23:19;;;;;;;;;;;;;;;12.68;100.00;97769.97;5000324;28;19933;-44
2022/09/25 09:25:50;;;;;;;;;;;;;;;12.52;100.00;97765.00;5000729;28;20021;-44
2022/09/25 09:28:32;;;;;;;;;;;;;;;11.93;100.00;97757.28;4999235;28;19972;-44
2022/09/25 09:31:05;;;;;;;;;;;;;;;11.88;100.00;97769.91;4997731;28;19929;-45
2022/09/25 09:33:41;;;;;;;;;;;;;;;12.17;100.00;97760.72;5001825;28;20420;-44
2022/09/25 09:36:13;;;;;;;;;;;;;;;12.50;100.00;97764.31;5002701;28;20448;-46
2022/09/25 09:38:48;;;;;;;;;;;;;;;12.72;100.00;97755.59;5002117;28;20003;-44
2022/09/25 09:41:20;;;;;;;;;;;;;;;12.96;100.00;97751.88;4999681;28;19937;-45
2022/09/25 09:43:54;;;;;;;;;;;;;;;13.11;99.49;97744.59;4998666;28;19934;-48
2022/09/25 09:46:30;;;;;;;;;;;;;;;12.98;98.94;97752.59;4982642;28;19929;-44
2022/09/25 09:49:06;;;;;;;;;;;;;;;12.98;100.00;97755.25;5006967;28;19932;-44
2022/09/25 09:51:38;;;;;;;;;;;;;;;13.61;99.67;97752.81;4975246;28;19960;-44
2022/09/25 09:54:11;;;;;;;;;;;;;;;13.37;100.00;97752.13;5008170;28;19925;-43
2022/09/25 09:56:41;;;;;;;;;;;;;;;13.41;98.46;97753.53;5000072;28;19925;-47
2022/09/25 09:59:16;;;;;;;;;;;;;;;13.00;98.22;97753.31;4972258;28;19929;-44
2022/09/25 10:01:47;;;;;;;;;;;;;;;13.13;100.00;97761.16;5002315;28;20380;-44
2022/09/25 10:04:18;;;;;;;;;;;;;;;13.37;98.39;97761.88;5000535;28;20407;-45
2022/09/25 10:06:48;;;;;;;;;;;;;;;12.57;98.67;97760.25;4973464;28;19930;-44
2022/09/25 10:09:16;;;;;;;;;;;;;;;12.55;100.00;97754.22;4989423;28;19936;-44
2022/09/25 10:11:45;;;;;;;;;;;;;;;13.12;100.00;97752.41;4986455;28;20008;-45
2022/09/25 10:14:17;;;;;;;;;;;;;;;12.53;100.00;97747.41;5005855;28;19933;-45
2022/09/25 10:16:47;;;;;;;;;;;;;;;12.38;100.00;97744.09;5000446;28;19932;-47
2022/09/25 10:19:18;;;;;;;;;;;;;;;12.41;100.00;97749.16;4991289;28;19965;-43
2022/09/25 10:21:48;;;;;;;;;;;;;;;12.20;100.00;97736.75;5003383;28;20024;-44
2022/09/25 10:24:30;;;;;;;;;;;;;;;12.44;100.00;97738.38;4996286;28;19925;-44
2022/09/25 10:27:17;;;;;;;;;;;;;;;11.82;100.00;97741.38;5000890;28;19957;-44
2022/09/25 10:29:46;;;;;;;;;;;;;;;11.75;100.00;97743.59;5003467;28;19929;-46
2022/09/25 10:32:17;;;;;;;;;;;;;;;11.65;100.00;97732.09;4984440;28;19968;-44
2022/09/25 10:34:53;;;;;;;;;;;;;;;11.98;100.00;97734.03;4997692;28;19926;-45
2022/09/25 10:37:21;;;;;;;;;;;;;;;12.01;100.00;97729.38;4992081;28;19926;-45
2022/09/25 10:40:00;;;;;;;;;;;;;;;12.41;100.00;97728.06;4993571;28;19925;-46
2022/09/25 10:42:32;;;;;;;;;;;;;;;12.15;100.00;97721.28;5003835;28;19929;-46
2022/09/25 10:45:00;;;;;;;;;;;;;;;11.91;100.00;97722.25;5001413;28;19925;-44
2022/09/25 10:50:18;;;;;;;;;;;;;;;12.28;100.00;97722.03;5005149;28;19967;-45
2022/09/25 10:52:50;;;;;;;;;;;;;;;11.95;100.00;97729.00;5003779;28;20020;-45
2022/09/25 10:55:27;;;;;;;;;;;;;;;12.64;100.00;97719.22;4998180;28;19926;-44
2022/09/25 10:58:01;;;;;;;;;;;;;;;12.62;100.00;97723.78;5003421;28;19925;-45
2022/09/25 11:00:32;;;;;;;;;;;;;;;12.57;100.00;97718.03;4981720;28;20365;-45
2022/09/25 11:03:05;;;;;;;;;;;;;;;12.99;100.00;97719.94;4995713;28;19973;-45
2022/09/25 11:05:37;;;;;;;;;;;;;;;13.04;100.00;97724.88;4980985;28;19926;-44
2022/09/25 11:08:08;;;;;;;;;;;;;;;13.20;100.00;97705.09;4995645;28;19969;-45
2022/09/25 11:10:39;;;;;;;;;;;;;;;13.16;100.00;97711.56;4998634;28;20385;-48
2022/09/25 11:13:11;;;;;;;;;;;;;;;13.13;100.00;97708.31;5005126;28;19968;-45
2022/09/25 11:15:48;;;;;;;;;;;;;;;12.98;100.00;97706.88;5000304;28;20374;-45
2022/09/25 11:18:35;;;;;;;;;;;;;;;13.03;100.00;97704.72;4993058;28;19929;-48
2022/09/25 11:21:17;;;;;;;;;;;;;;;13.27;100.00;97702.78;4992884;28;19926;-48
2022/09/25 11:23:55;;;;;;;;;;;;;;;13.25;100.00;97700.25;4992041;28;19926;-45
2022/09/25 11:26:28;;;;;;;;;;;;;;;13.23;100.00;97704.00;4989417;28;19933;-46
2022/09/25 11:29:00;;;;;;;;;;;;;;;13.20;100.00;97704.22;4995740;28;20024;-45
2022/09/25 11:31:31;;;;;;;;;;;;;;;12.92;100.00;97704.72;4978054;28;19926;-45
2022/09/25 11:34:09;;;;;;;;;;;;;;;13.12;100.00;97694.28;5002150;28;20032;-51
2022/09/25 11:36:42;;;;;;;;;;;;;;;13.29;100.00;97695.59;4999611;28;20020;-44
2022/09/25 11:42:02;;;;;;;;;;;;;;;13.13;100.00;97700.41;5006929;28;19926;-45
2022/09/25 11:44:35;;;;;;;;;;;;;;;12.76;100.00;97702.44;5004412;28;19929;-45
2022/09/25 11:47:07;;;;;;;;;;;;;;;12.88;100.00;97704.09;5007522;28;19957;-45
2022/09/25 11:49:37;;;;;;;;;;;;;;;13.11;100.00;97697.06;5005159;28;20385;-46
2022/09/25 11:52:26;;;;;;;;;;;;;;;13.27;100.00;97695.72;4995511;28;19933;-45
2022/09/25 11:55:09;;;;;;;;;;;;;;;13.25;100.00;97696.78;5008547;28;19968;-45
2022/09/25 11:57:41;;;;;;;;;;;;;;;13.02;100.00;97706.50;5003045;28;19926;-45
2022/09/25 12:00:11;;;;;;;;;;;;;;;12.81;100.00;97710.81;5008667;28;19932;-45
2022/09/25 12:02:45;;;;;;;;;;;;;;;12.37;100.00;97708.13;5002089;28;20292;-47
2022/09/25 12:05:29;;;;;;;;;;;;;;;12.80;100.00;97703.88;5001515;28;20534;-45
2022/09/25 12:08:06;;;;;;;;;;;;;;;12.88;100.00;97700.63;5003974;28;19930;-44
2022/09/25 12:10:40;;;;;;;;;;;;;;;12.43;100.00;97693.63;5001920;28;19976;-45
2022/09/25 12:13:17;;;;;;;;;;;;;;;12.51;100.00;97678.06;4982566;28;19926;-46
2022/09/25 12:15:54;;;;;;;;;;;;;;;12.75;100.00;97681.44;4989106;28;19930;-46
2022/09/25 12:18:28;;;;;;;;;;;;;;;12.75;100.00;97671.72;5002188;28;19953;-45
2022/09/25 12:21:00;;;;;;;;;;;;;;;12.89;100.00;97668.81;4999097;28;19932;-49
2022/09/25 12:23:31;;;;;;;;;;;;;;;12.69;100.00;97664.28;5006834;28;19980;-47
2022/09/25 12:26:10;;;;;;;;;;;;;;;12.81;100.00;97652.75;4991197;28;19996;-44
2022/09/25 12:28:42;;;;;;;;;;;;;;;13.01;100.00;97648.53;4976512;28;20443;-45
2022/09/25 12:31:16;;;;;;;;;;;;;;;12.83;99.84;97650.00;4999991;28;19963;-45
2022/09/25 12:33:51;;;;;;;;;;;;;;;12.99;100.00;97648.66;5001244;28;19925;-45
2022/09/25 12:36:21;;;;;;;;;;;;;;;12.78;100.00;97663.53;5004499;28;19972;-44
2022/09/25 12:38:54;;;;;;;;;;;;;;;12.52;100.00;97669.19;4999532;28;20341;-44
2022/09/25 12:41:28;;;;;;;;;;;;;;;12.52;100.00;97666.56;4994617;28;19932;-46
2022/09/25 12:44:00;;;;;;;;;;;;;;;12.32;100.00;97662.81;5000770;28;20389;-47
2022/09/25 12:46:29;;;;;;;;;;;;;;;12.09;100.00;97662.91;5000295;28;19936;-45
2022/09/25 12:49:00;;;;;;;;;;;;;;;12.13;100.00;97659.91;5005122;28;20365;-44
2022/09/25 12:51:34;;;;;;;;;;;;;;;12.17;100.00;97652.59;5005496;28;19925;-46
2022/09/25 12:54:04;;;;;;;;;;;;;;;12.43;100.00;97648.78;5004998;28;19930;-46
2022/09/25 12:56:33;;;;;;;;;;;;;;;12.09;100.00;97650.56;5005655;28;20027;-47
2022/09/25 12:59:04;;;;;;;;;;;;;;;12.19;100.00;97654.16;5004569;28;19961;-46
2022/09/25 13:01:38;;;;;;;;;;;;;;;12.40;100.00;97646.38;5004604;28;20107;-47
2022/09/25 13:04:15;;;;;;;;;;;;;;;12.33;100.00;97642.56;5006729;28;19940;-44
2022/09/25 13:06:49;;;;;;;;;;;;;;;12.22;100.00;97642.56;5001220;28;19929;-45
2022/09/25 13:09:26;;;;;;;;;;;;;;;12.10;100.00;97639.03;5005299;28;19932;-44
2022/09/25 13:11:56;;;;;;;;;;;;;;;12.02;100.00;97625.63;5005168;28;20019;-44
2022/09/25 13:14:30;;;;;;;;;;;;;;;12.16;100.00;97625.41;4986968;28;20392;-48
2022/09/25 13:17:00;;;;;;;;;;;;;;;12.19;100.00;97638.31;5006007;28;19922;-47
2022/09/25 13:19:32;;;;;;;;;;;;;;;12.07;100.00;97626.09;5005761;28;19926;-44
2022/09/25 13:22:03;;;;;;;;;;;;;;;12.22;100.00;97627.56;4994280;28;19926;-44
2022/09/25 13:24:39;;;;;;;;;;;;;;;12.09;100.00;97632.09;4994759;28;19984;-44